createdAt,value
2023-12-31T00:02:14.858Z,14.73
2023-12-31T00:04:42.465Z,15.50
2023-12-31T00:07:09.212Z,14.40
2023-12-31T00:09:35.937Z,15.83
2023-12-31T00:17:23.131Z,14.20
2023-12-31T00:19:50.259Z,16.33
2023-12-31T00:22:17.519Z,15.30
2023-12-31T00:24:44.494Z,16.23
2023-12-31T00:27:11.663Z,16.40
2023-12-31T00:29:38.547Z,14.67
2023-12-31T00:40:02.502Z,14.83
2023-12-31T00:45:10.812Z,16.43
2023-12-31T00:47:37.594Z,14.53
2023-12-31T00:50:04.677Z,14.00
2023-12-31T00:55:39.453Z,13.77
2023-12-31T00:58:07.829Z,14.10
2023-12-31T01:00:34.660Z,13.83
2023-12-31T01:09:15.110Z,13.20
2023-12-31T01:17:14.319Z,13.37
2023-12-31T01:19:42.166Z,12.97
2023-12-31T01:22:09.145Z,12.37
2023-12-31T01:24:36.097Z,13.13
2023-12-31T01:27:03.226Z,13.70
2023-12-31T01:29:30.405Z,12.03
2023-12-31T01:34:35.179Z,13.23
2023-12-31T01:37:02.109Z,13.30
2023-12-31T01:39:30.254Z,13.23
2023-12-31T01:53:16.600Z,12.07
2023-12-31T01:55:44.765Z,12.80
2023-12-31T01:58:11.943Z,13.90
2023-12-31T02:00:39.315Z,13.23
2023-12-31T02:06:06.068Z,14.53
2023-12-31T02:08:32.982Z,14.00
2023-12-31T02:10:59.942Z,13.03
2023-12-31T02:13:27.076Z,12.80
2023-12-31T02:15:54.761Z,14.23
2023-12-31T02:18:21.715Z,13.97
2023-12-31T02:20:49.135Z,14.70
2023-12-31T02:26:19.741Z,14.13
2023-12-31T02:28:46.573Z,14.57
2023-12-31T02:31:13.512Z,14.50
2023-12-31T02:33:40.671Z,14.37
2023-12-31T02:36:08.048Z,12.33
2023-12-31T02:38:34.836Z,13.97
2023-12-31T02:41:01.854Z,13.67
2023-12-31T02:48:47.192Z,12.97
2023-12-31T02:54:01.604Z,12.60
2023-12-31T02:56:29.187Z,12.20
2023-12-31T02:58:56.249Z,12.70
2023-12-31T03:04:20.365Z,14.73
2023-12-31T03:06:52.681Z,14.30
2023-12-31T03:09:20.590Z,14.23
2023-12-31T03:11:49.000Z,13.80
2023-12-31T03:14:15.857Z,14.03
2023-12-31T03:16:46.842Z,13.00
2023-12-31T03:19:17.465Z,13.70
2023-12-31T03:21:44.674Z,13.77
2023-12-31T03:24:12.648Z,14.60
2023-12-31T03:26:39.417Z,12.70
2023-12-31T03:29:06.282Z,14.30
2023-12-31T03:31:33.291Z,11.90
2023-12-31T03:34:00.406Z,12.70
2023-12-31T03:36:27.175Z,13.67
2023-12-31T03:38:56.038Z,15.23
2023-12-31T03:41:23.037Z,13.43
2023-12-31T03:43:50.111Z,11.73
2023-12-31T03:46:17.498Z,14.20
2023-12-31T03:48:44.491Z,13.17
2023-12-31T03:53:57.558Z,13.40
2023-12-31T03:56:24.896Z,13.97
2023-12-31T03:58:55.270Z,13.77
2023-12-31T04:06:45.379Z,13.73
2023-12-31T04:09:12.640Z,12.73
2023-12-31T04:14:33.092Z,12.90
2023-12-31T04:17:00.499Z,14.17
2023-12-31T04:19:28.304Z,12.83
2023-12-31T04:24:42.918Z,13.23
2023-12-31T04:27:10.253Z,12.97
2023-12-31T04:29:37.308Z,12.90
2023-12-31T04:32:04.562Z,13.43
2023-12-31T04:34:32.116Z,12.90
2023-12-31T04:36:59.028Z,12.97
2023-12-31T04:39:25.792Z,11.97
2023-12-31T04:41:53.124Z,11.33
2023-12-31T04:44:20.496Z,12.57
2023-12-31T04:46:48.424Z,12.17
2023-12-31T04:49:16.084Z,13.77
2023-12-31T04:51:44.097Z,11.13
2023-12-31T04:54:11.708Z,10.97
2023-12-31T04:56:39.372Z,11.13
2023-12-31T04:59:06.154Z,11.30
2023-12-31T05:01:35.667Z,11.03
2023-12-31T05:04:03.273Z,10.80
2023-12-31T05:06:30.634Z,11.17
2023-12-31T05:08:58.034Z,10.70
2023-12-31T05:38:25.610Z,11.33
2023-12-31T05:40:52.789Z,12.90
2023-12-31T05:46:14.204Z,12.93
2023-12-31T05:48:41.600Z,14.27
2023-12-31T05:51:11.057Z,14.20
2023-12-31T05:53:38.090Z,11.90
2023-12-31T05:56:06.497Z,11.77
2023-12-31T05:58:33.422Z,12.40
2023-12-31T06:01:01.392Z,13.57
2023-12-31T06:03:30.069Z,13.13
2023-12-31T06:05:56.845Z,14.50
2023-12-31T06:08:23.936Z,14.00
2023-12-31T06:10:50.952Z,14.07
2023-12-31T06:13:18.392Z,14.27
2023-12-31T06:15:45.705Z,13.57
2023-12-31T06:18:13.285Z,14.87
2023-12-31T06:20:40.692Z,14.37
2023-12-31T06:25:50.807Z,17.03
2023-12-31T06:28:17.473Z,15.60
2023-12-31T06:30:44.058Z,16.50
2023-12-31T06:33:10.890Z,15.80
2023-12-31T06:35:38.022Z,16.90
2023-12-31T06:38:05.946Z,18.93
2023-12-31T06:40:34.584Z,19.50
2023-12-31T06:43:02.206Z,19.93
2023-12-31T06:45:29.578Z,15.77
2023-12-31T06:47:56.360Z,20.23
2023-12-31T06:50:23.537Z,19.10
2023-12-31T07:03:34.417Z,15.07
2023-12-31T07:06:01.552Z,14.90
2023-12-31T07:08:28.932Z,16.43
2023-12-31T07:10:56.808Z,15.00
2023-12-31T07:16:05.772Z,15.43
2023-12-31T07:18:35.225Z,14.80
2023-12-31T07:21:04.468Z,15.73
2023-12-31T07:35:28.395Z,16.30
2023-12-31T07:37:58.846Z,15.07
2023-12-31T07:40:25.703Z,13.63
2023-12-31T07:42:56.399Z,15.03
2023-12-31T07:45:22.839Z,15.97
2023-12-31T07:47:50.067Z,16.07
2023-12-31T07:50:16.677Z,15.27
2023-12-31T07:52:43.182Z,16.17
2023-12-31T07:55:10.663Z,15.60
2023-12-31T07:57:37.916Z,14.87
2023-12-31T08:00:08.355Z,15.90
2023-12-31T08:08:21.079Z,15.07
2023-12-31T08:10:48.000Z,15.30
2023-12-31T08:15:59.493Z,15.67
2023-12-31T08:18:26.745Z,16.63
2023-12-31T08:20:53.947Z,17.13
2023-12-31T08:23:21.370Z,15.57
2023-12-31T08:25:51.394Z,15.47
2023-12-31T08:28:18.349Z,15.20
2023-12-31T08:30:44.921Z,16.80
2023-12-31T08:33:12.152Z,17.23
2023-12-31T08:35:42.435Z,18.07
2023-12-31T08:38:10.425Z,17.57
2023-12-31T08:40:37.430Z,16.97
2023-12-31T13:47:14.734Z,11.10
2023-12-31T13:49:41.848Z,10.50
2023-12-31T14:23:34.530Z,11.97
2023-12-31T14:26:01.802Z,11.30
2023-12-31T14:28:30.939Z,11.33
2023-12-31T14:31:00.275Z,10.93
2023-12-31T14:33:27.411Z,10.73
2023-12-31T14:35:57.606Z,10.67
2023-12-31T14:38:24.735Z,10.57
2023-12-31T14:40:51.996Z,10.43
2023-12-31T15:07:43.842Z,10.03
2023-12-31T15:10:10.970Z,9.67
2023-12-31T15:12:38.521Z,11.77
2023-12-31T15:15:05.722Z,10.17
2023-12-31T15:17:32.667Z,11.23
2023-12-31T15:19:59.769Z,10.90
2023-12-31T15:22:26.795Z,11.20
2023-12-31T15:24:53.690Z,10.57
2023-12-31T15:27:20.559Z,10.03
2023-12-31T15:29:50.039Z,10.50
2023-12-31T15:32:17.506Z,11.53
2023-12-31T15:34:44.365Z,11.87
2023-12-31T15:37:17.549Z,13.70
2023-12-31T15:39:44.587Z,12.37
2023-12-31T15:42:11.443Z,12.83
2023-12-31T15:44:38.048Z,13.67
2023-12-31T15:47:04.987Z,13.33
2023-12-31T15:49:34.139Z,13.67
2023-12-31T15:52:01.309Z,13.00
2023-12-31T15:54:28.519Z,14.50
2023-12-31T15:56:55.647Z,14.23
2023-12-31T15:59:22.423Z,15.07
2023-12-31T16:01:49.425Z,13.33
2023-12-31T16:04:16.454Z,14.07
2023-12-31T16:06:44.436Z,13.30
2023-12-31T16:09:11.861Z,12.63
2023-12-31T16:11:40.738Z,12.43
2023-12-31T16:14:08.119Z,12.53
2023-12-31T16:16:35.237Z,13.53
2023-12-31T16:19:02.797Z,13.07
2023-12-31T16:21:29.537Z,13.73
2023-12-31T16:23:56.337Z,13.50
2023-12-31T16:26:22.931Z,13.13
2023-12-31T16:28:50.065Z,13.50
2023-12-31T16:31:17.340Z,13.90
2023-12-31T16:33:44.305Z,14.87
2023-12-31T16:36:11.666Z,14.33
2023-12-31T16:38:39.015Z,15.33
2023-12-31T16:41:05.824Z,16.73
2023-12-31T16:43:33.305Z,15.70
2023-12-31T16:46:00.671Z,16.10
2023-12-31T16:48:27.749Z,14.77
2023-12-31T16:50:54.583Z,15.43
2023-12-31T16:53:22.491Z,15.50
2023-12-31T16:55:49.657Z,16.27
2023-12-31T16:58:17.824Z,16.93
2023-12-31T17:00:45.584Z,15.67
2023-12-31T17:03:12.751Z,14.80
2023-12-31T17:05:41.484Z,15.47
2023-12-31T17:08:09.825Z,16.57
2023-12-31T17:10:37.102Z,15.83
2023-12-31T17:15:39.510Z,15.67
2023-12-31T17:18:06.391Z,13.40
2023-12-31T17:20:33.078Z,12.87
2023-12-31T17:22:59.592Z,14.23
2023-12-31T17:25:26.037Z,16.03
2023-12-31T17:27:52.484Z,17.20
2023-12-31T17:33:08.885Z,21.13
2023-12-31T17:35:38.012Z,19.77
2023-12-31T17:38:04.987Z,18.27
2023-12-31T17:40:31.552Z,16.90
2023-12-31T17:42:58.095Z,16.70
2023-12-31T17:45:24.557Z,18.10
2023-12-31T17:47:51.204Z,16.57
2023-12-31T17:50:22.106Z,15.67
2023-12-31T17:52:50.253Z,14.07
2023-12-31T17:55:16.716Z,14.03
2023-12-31T17:57:43.170Z,13.67
2023-12-31T18:00:09.957Z,12.57
2023-12-31T18:02:36.395Z,13.47
2023-12-31T18:05:02.849Z,12.30
2023-12-31T18:07:29.301Z,11.63
2023-12-31T18:09:55.727Z,11.87
2023-12-31T18:12:23.702Z,12.50
2023-12-31T18:14:50.185Z,11.17
2023-12-31T18:17:18.413Z,14.50
2023-12-31T18:19:45.601Z,16.67
2023-12-31T18:22:12.155Z,19.60
2023-12-31T18:24:38.624Z,21.00
2023-12-31T18:27:05.288Z,23.27
2023-12-31T18:29:31.689Z,22.10
2023-12-31T18:31:58.227Z,21.00
2023-12-31T18:34:24.676Z,20.87
2023-12-31T18:36:52.617Z,19.23
2023-12-31T18:39:20.426Z,19.90
2023-12-31T18:41:47.404Z,20.60
2023-12-31T18:44:13.948Z,18.90
2023-12-31T18:46:41.830Z,26.17
2023-12-31T18:49:08.765Z,27.53
2023-12-31T18:51:42.936Z,26.33
2023-12-31T18:54:10.578Z,29.50
2023-12-31T18:56:37.415Z,29.47
2023-12-31T18:59:04.747Z,33.20
2023-12-31T19:01:33.657Z,28.17
2023-12-31T19:04:01.365Z,27.27
2023-12-31T19:06:28.445Z,27.67
2023-12-31T19:08:55.129Z,43.67
2023-12-31T19:11:22.518Z,29.23
2023-12-31T19:13:49.042Z,26.70
2023-12-31T19:16:15.472Z,27.63
2023-12-31T19:18:41.960Z,28.87
2023-12-31T19:21:08.426Z,26.47
2023-12-31T19:23:34.917Z,25.57
2023-12-31T19:26:01.354Z,27.37
2023-12-31T19:28:27.811Z,30.90
2023-12-31T19:30:54.316Z,30.67
2023-12-31T19:33:20.926Z,32.47
2023-12-31T19:35:47.382Z,36.73
2023-12-31T19:38:13.968Z,38.20
2023-12-31T19:40:40.421Z,36.97
2023-12-31T19:43:17.707Z,31.97
2023-12-31T19:45:49.673Z,31.13
2023-12-31T19:48:18.014Z,31.00
2023-12-31T19:50:44.757Z,30.47
2023-12-31T19:53:11.314Z,30.23
2023-12-31T19:55:40.005Z,29.37
2023-12-31T19:58:06.592Z,25.03
2023-12-31T20:00:33.112Z,23.90
2023-12-31T20:02:59.590Z,13.50
2023-12-31T20:05:26.092Z,11.07
2023-12-31T20:07:54.018Z,9.90
2023-12-31T20:10:22.461Z,9.67
2023-12-31T20:12:49.088Z,9.57
2023-12-31T20:15:15.649Z,9.60
2023-12-31T20:17:43.380Z,10.60
2023-12-31T20:20:10.866Z,10.00
2023-12-31T20:22:37.459Z,9.30
2023-12-31T20:25:04.292Z,9.87
2023-12-31T20:27:30.794Z,8.73
2023-12-31T20:29:57.205Z,7.60
2023-12-31T20:32:23.798Z,7.50
2023-12-31T20:34:55.744Z,7.57
2023-12-31T20:37:22.234Z,6.83
2023-12-31T20:39:53.482Z,6.60
2023-12-31T20:42:22.803Z,6.33
2023-12-31T20:44:50.222Z,7.20
2023-12-31T20:47:16.629Z,7.33
2023-12-31T20:49:44.514Z,6.67
2023-12-31T20:52:17.133Z,6.77
2023-12-31T20:54:44.082Z,6.53
2023-12-31T20:57:12.657Z,6.57
2023-12-31T20:59:42.000Z,6.10
2023-12-31T21:02:09.523Z,5.80
2023-12-31T21:04:36.411Z,6.33
2023-12-31T21:07:03.763Z,6.90
2023-12-31T21:09:30.197Z,6.60
2023-12-31T21:11:56.597Z,6.57
2023-12-31T21:14:23.072Z,5.97
2023-12-31T21:16:49.725Z,5.70
2023-12-31T21:19:16.342Z,5.70
2023-12-31T21:21:43.162Z,6.50
2023-12-31T21:24:14.027Z,7.20
2023-12-31T21:26:41.639Z,6.43
2023-12-31T21:29:12.375Z,11.10
2023-12-31T21:31:38.990Z,18.90
2023-12-31T21:34:05.660Z,21.83
2023-12-31T21:36:32.256Z,22.07
2023-12-31T21:38:58.703Z,21.73
2023-12-31T21:41:25.738Z,20.60
2023-12-31T21:43:52.235Z,16.50
2023-12-31T21:46:18.769Z,13.77
2023-12-31T21:48:45.279Z,21.90
2023-12-31T21:51:13.097Z,29.90
2023-12-31T21:53:39.508Z,36.57
2023-12-31T21:56:21.649Z,34.07
2023-12-31T21:58:53.583Z,31.70
2023-12-31T23:29:55.867Z,36.40
2023-12-31T23:55:22.366Z,9.70
2023-12-31T23:57:50.667Z,10.77
